createdAt,value
2019-06-01T00:01:38.147Z,2.58
2019-06-01T00:06:42.872Z,3.17
2019-06-01T00:11:47.534Z,3.05
2019-06-01T00:16:52.334Z,3.08
2019-06-01T00:21:56.975Z,2.70
2019-06-01T00:27:01.264Z,2.70
2019-06-01T00:32:05.980Z,2.90
2019-06-01T00:37:10.363Z,3.12
2019-06-01T00:42:14.678Z,3.52
2019-06-01T00:47:19.177Z,3.10
2019-06-01T00:52:23.450Z,3.45
2019-06-01T00:57:27.723Z,3.75
2019-06-01T01:02:32.357Z,3.92
2019-06-01T01:07:38.320Z,4.20
2019-06-01T01:13:02.008Z,4.25
2019-06-01T01:18:07.326Z,4.35
2019-06-01T01:23:11.699Z,4.53
2019-06-01T01:28:16.053Z,4.80
2019-06-01T01:33:20.350Z,4.08
2019-06-01T01:38:24.681Z,4.90
2019-06-01T01:43:29.217Z,4.70
2019-06-01T01:48:33.511Z,4.10
2019-06-01T01:53:37.795Z,4.42
2019-06-01T01:58:42.348Z,3.95
2019-06-01T02:03:46.641Z,4.22
2019-06-01T02:08:51.066Z,4.33
2019-06-01T02:13:55.772Z,3.90
2019-06-01T02:19:09.003Z,4.53
2019-06-01T02:24:13.400Z,4.72
2019-06-01T02:29:17.735Z,4.33
2019-06-01T02:34:22.123Z,4.72
2019-06-01T02:39:27.376Z,4.20
2019-06-01T02:44:32.224Z,4.42
2019-06-01T02:49:36.605Z,5.37
2019-06-01T02:54:40.964Z,4.58
2019-06-01T02:59:45.257Z,5.30
2019-06-01T03:04:49.677Z,5.00
2019-06-01T03:09:54.624Z,5.42
2019-06-01T03:15:00.590Z,5.30
2019-06-01T03:20:06.277Z,5.72
2019-06-01T03:25:12.317Z,6.50
2019-06-01T03:30:18.329Z,5.80
2019-06-01T03:35:22.691Z,5.90
2019-06-01T03:40:27.245Z,5.85
2019-06-01T03:45:31.724Z,6.22
2019-06-01T03:50:36.407Z,5.92
2019-06-01T03:55:41.112Z,6.33
2019-06-01T04:00:45.716Z,6.67
2019-06-01T04:05:50.468Z,6.00
2019-06-01T04:10:54.839Z,5.80
2019-06-01T04:15:59.539Z,5.20
2019-06-01T04:21:04.517Z,5.12
2019-06-01T04:26:10.347Z,4.03
2019-06-01T04:31:15.151Z,4.25
2019-06-01T04:36:19.670Z,4.35
2019-06-01T04:41:24.621Z,4.30
2019-06-01T04:46:29.136Z,4.35
2019-06-01T04:51:34.263Z,4.60
2019-06-01T04:56:38.696Z,4.33
2019-06-01T05:01:43.179Z,4.28
2019-06-01T05:06:58.136Z,4.70
2019-06-01T05:12:05.275Z,4.00
2019-06-01T05:17:10.231Z,4.15
2019-06-01T05:22:14.956Z,4.25
2019-06-01T05:27:19.522Z,4.62
2019-06-01T05:32:24.123Z,2.75
2019-06-01T05:37:28.913Z,2.70
2019-06-01T05:42:33.589Z,4.17
2019-06-01T05:47:38.923Z,3.92
2019-06-01T05:52:43.602Z,4.20
2019-06-01T05:58:07.228Z,4.95
2019-06-01T06:03:20.816Z,3.30
2019-06-01T06:08:23.507Z,3.40
2019-06-01T06:13:28.322Z,3.33
2019-06-01T06:18:32.665Z,3.65
2019-06-01T06:23:37.026Z,3.60
2019-06-01T06:28:41.651Z,4.62
2019-06-01T06:33:55.877Z,3.87
2019-06-01T06:38:52.040Z,4.30
2019-06-01T06:43:56.349Z,4.08
2019-06-01T06:49:00.701Z,4.08
2019-06-01T06:54:05.145Z,3.83
2019-06-01T06:59:11.721Z,3.98
2019-06-01T07:04:15.584Z,3.70
2019-06-01T07:09:20.281Z,4.53
2019-06-01T07:14:25.477Z,3.98
2019-06-01T07:19:30.051Z,8.43
2019-06-01T07:24:36.020Z,10.25
2019-06-01T07:29:40.782Z,7.87
2019-06-01T07:34:46.859Z,7.83
2019-06-01T07:39:51.507Z,7.12
2019-06-01T07:44:56.668Z,5.67
2019-06-01T07:50:01.403Z,4.75
2019-06-01T07:55:07.483Z,4.28
2019-06-01T08:00:13.108Z,9.58
2019-06-01T08:05:17.882Z,5.50
2019-06-01T08:10:23.072Z,4.65
2019-06-01T08:15:29.790Z,4.83
2019-06-01T08:20:34.242Z,4.58
2019-06-01T08:25:38.663Z,6.85
2019-06-01T08:30:43.372Z,4.72
2019-06-01T08:35:47.641Z,5.50
2019-06-01T08:40:51.923Z,5.22
2019-06-01T08:45:56.270Z,4.55
2019-06-01T08:51:00.643Z,4.30
2019-06-01T08:56:05.011Z,4.67
2019-06-01T09:01:10.984Z,4.75
2019-06-01T09:06:15.330Z,3.70
2019-06-01T09:11:20.377Z,4.00
2019-06-01T09:16:25.509Z,3.60
2019-06-01T09:21:30.024Z,3.33
2019-06-01T09:26:34.428Z,3.00
2019-06-01T09:31:38.801Z,3.95
2019-06-01T09:36:43.372Z,4.72
2019-06-01T09:41:47.684Z,4.30
2019-06-01T09:46:52.007Z,4.42
2019-06-01T09:51:56.686Z,4.30
2019-06-01T09:57:01.045Z,4.28
2019-06-01T10:02:05.400Z,4.00
2019-06-01T10:07:09.999Z,4.30
2019-06-01T10:12:14.664Z,4.37
2019-06-01T10:17:19.305Z,6.08
2019-06-01T10:22:23.927Z,4.00
2019-06-01T10:27:28.308Z,2.50
2019-06-01T10:32:34.227Z,2.20
2019-06-01T10:37:39.623Z,2.80
2019-06-01T10:42:44.247Z,2.92
2019-06-01T10:47:51.346Z,2.40
2019-06-01T10:52:55.820Z,2.00
2019-06-01T10:58:01.964Z,1.80
2019-06-01T11:03:06.602Z,4.15
2019-06-01T11:08:11.171Z,2.30
2019-06-01T11:13:15.675Z,1.90
2019-06-01T11:18:19.968Z,1.98
2019-06-01T11:23:27.664Z,2.42
2019-06-01T11:28:32.055Z,1.60
2019-06-01T11:33:36.516Z,3.27
2019-06-01T11:38:42.549Z,2.33
2019-06-01T11:43:47.298Z,2.30
2019-06-01T11:48:51.848Z,2.65
2019-06-01T11:55:50.770Z,4.67
2019-06-01T12:00:56.589Z,3.60
2019-06-01T12:06:01.456Z,3.12
2019-06-01T12:11:09.267Z,3.47
2019-06-01T12:16:14.326Z,3.58
2019-06-01T12:21:19.397Z,3.58
2019-06-01T12:26:37.134Z,3.33
2019-06-01T12:31:53.679Z,3.00
2019-06-01T12:37:00.637Z,2.62
2019-06-01T12:42:05.576Z,3.02
2019-06-01T12:47:10.729Z,3.10
2019-06-01T12:52:15.815Z,2.58
2019-06-01T12:57:20.934Z,1.70
2019-06-01T13:02:25.949Z,2.47
2019-06-01T13:07:30.973Z,11.40
2019-06-01T13:12:36.464Z,1.82
2019-06-01T13:23:47.501Z,2.22
2019-06-01T13:28:53.081Z,1.90
2019-06-01T13:33:58.734Z,2.40
2019-06-01T13:39:04.753Z,2.15
2019-06-01T13:44:10.569Z,2.80
2019-06-01T13:49:15.631Z,2.37
2019-06-01T13:54:21.478Z,2.40
2019-06-01T13:59:26.909Z,2.02
2019-06-01T14:04:32.018Z,2.80
2019-06-01T14:09:37.589Z,2.10
2019-06-01T14:14:42.567Z,2.12
2019-06-01T14:19:47.654Z,2.27
2019-06-01T14:25:08.365Z,3.50
2019-06-01T14:29:59.561Z,2.62
2019-06-01T14:35:04.690Z,3.85
2019-06-01T14:40:10.079Z,2.60
2019-06-01T14:45:15.253Z,2.95
2019-06-01T14:50:20.509Z,2.20
2019-06-01T14:55:25.805Z,2.42
2019-06-01T15:00:30.786Z,2.20
2019-06-01T15:05:52.277Z,2.42
2019-06-01T15:10:58.778Z,2.62
2019-06-01T15:16:04.651Z,2.52
2019-06-01T15:21:11.454Z,2.65
2019-06-01T15:26:16.859Z,2.20
2019-06-01T15:31:22.008Z,2.50
2019-06-01T15:36:27.479Z,2.90
2019-06-01T15:41:32.723Z,2.77
2019-06-01T15:46:37.660Z,3.10
2019-06-01T15:51:42.533Z,3.20
2019-06-01T15:56:47.698Z,2.45
2019-06-01T16:01:52.982Z,3.10
2019-06-01T16:06:59.161Z,3.47
2019-06-01T16:12:04.385Z,3.77
2019-06-01T16:17:10.945Z,4.00
2019-06-01T16:22:15.945Z,3.58
2019-06-01T16:27:20.860Z,3.60
2019-06-01T16:32:25.666Z,4.33
2019-06-01T16:37:30.648Z,4.47
2019-06-01T16:42:36.089Z,4.15
2019-06-01T16:47:43.705Z,4.67
2019-06-01T16:52:48.493Z,5.22
2019-06-01T16:57:53.725Z,5.42
2019-06-01T17:02:58.690Z,5.70
2019-06-01T17:08:04.782Z,5.67
2019-06-01T17:13:10.425Z,6.53
2019-06-01T17:18:15.509Z,5.72
2019-06-01T17:23:27.005Z,6.20
2019-06-01T17:28:27.744Z,5.58
2019-06-01T17:33:32.551Z,6.97
2019-06-01T17:38:38.519Z,6.37
2019-06-01T17:43:43.485Z,6.37
2019-06-01T17:48:48.992Z,7.03
2019-06-01T17:53:53.880Z,6.80
2019-06-01T17:58:59.054Z,6.60
2019-06-01T18:04:04.012Z,6.55
2019-06-01T18:09:10.277Z,6.50
2019-06-01T18:14:15.460Z,7.03
2019-06-01T18:19:20.596Z,6.50
2019-06-01T18:24:25.620Z,6.80
2019-06-01T18:29:30.727Z,7.28
2019-06-01T18:34:36.406Z,4.90
2019-06-01T18:39:41.538Z,5.00
2019-06-01T18:44:46.434Z,5.03
2019-06-01T18:49:51.716Z,4.97
2019-06-01T18:54:57.020Z,4.70
2019-06-01T19:00:02.008Z,4.70
2019-06-01T19:05:09.147Z,5.58
2019-06-01T19:10:15.727Z,6.78
2019-06-01T19:15:28.669Z,5.70
2019-06-01T19:20:27.776Z,8.50
2019-06-01T19:25:35.486Z,7.50
2019-06-01T19:30:42.335Z,6.60
2019-06-01T19:35:47.993Z,13.50
2019-06-01T19:40:54.848Z,7.08
2019-06-01T19:46:01.294Z,6.45
2019-06-01T19:51:06.311Z,5.83
2019-06-01T19:56:11.417Z,6.72
2019-06-01T20:01:16.705Z,6.22
2019-06-01T20:06:21.630Z,5.85
2019-06-01T20:11:27.190Z,6.37
2019-06-01T20:16:32.275Z,6.60
2019-06-01T20:21:37.837Z,7.45
2019-06-01T20:26:48.956Z,7.50
2019-06-01T20:31:50.709Z,7.95
2019-06-01T20:36:56.007Z,7.72
2019-06-01T20:42:20.980Z,11.25
2019-06-01T20:47:16.694Z,8.05
2019-06-01T20:52:23.296Z,8.33
2019-06-01T20:57:28.408Z,8.50
2019-06-01T21:02:33.214Z,8.58
2019-06-01T21:07:38.513Z,8.10
2019-06-01T21:12:45.738Z,9.58
2019-06-01T21:17:50.550Z,10.03
2019-06-01T21:22:55.904Z,10.50
2019-06-01T21:28:01.118Z,10.48
2019-06-01T21:33:07.353Z,10.70
2019-06-01T21:38:12.397Z,10.30
2019-06-01T21:43:26.107Z,11.12
2019-06-01T21:48:24.494Z,11.63
2019-06-01T21:53:30.499Z,12.10
2019-06-01T21:58:35.506Z,11.22
2019-06-01T22:03:40.938Z,11.78
2019-06-01T22:08:52.209Z,11.55
2019-06-01T22:13:52.854Z,11.70
2019-06-01T22:18:58.027Z,12.05
2019-06-01T22:24:03.231Z,11.85
2019-06-01T22:29:08.238Z,11.28
2019-06-01T22:34:13.376Z,11.97
2019-06-01T22:39:19.439Z,12.00
2019-06-01T22:44:26.513Z,11.55
2019-06-01T22:49:31.443Z,12.45
2019-06-01T22:54:38.374Z,11.28
2019-06-01T22:59:43.662Z,12.40
2019-06-01T23:04:52.795Z,11.65
2019-06-01T23:09:57.937Z,11.88
2019-06-01T23:15:03.468Z,11.65
2019-06-01T23:20:08.838Z,12.60
2019-06-01T23:25:15.396Z,12.43
2019-06-01T23:30:22.007Z,12.43
2019-06-01T23:35:27.038Z,13.28
2019-06-01T23:40:32.785Z,12.53
2019-06-01T23:45:37.662Z,13.43
2019-06-01T23:50:43.311Z,13.38
2019-06-01T23:55:48.805Z,12.80
